createdAt,value
2023-03-06T00:00:42.118Z,54.65
2023-03-06T00:01:42.093Z,54.46
2023-03-06T00:02:42.108Z,54.55
2023-03-06T00:03:42.130Z,54.84
2023-03-06T00:04:42.107Z,55.03
2023-03-06T00:05:42.174Z,55.03
2023-03-06T00:06:42.118Z,55.38
2023-03-06T00:07:42.124Z,55.29
2023-03-06T00:08:42.128Z,55.29
2023-03-06T00:09:42.130Z,55.38
2023-03-06T00:10:42.141Z,55.57
2023-03-06T00:11:42.141Z,55.94
2023-03-06T00:12:42.145Z,55.85
2023-03-06T00:13:42.158Z,55.66
2023-03-06T00:14:42.154Z,55.85
2023-03-06T00:15:42.165Z,55.94
2023-03-06T00:16:42.183Z,56.04
2023-03-06T00:17:42.169Z,55.19
2023-03-06T00:18:42.174Z,55.10
2023-03-06T00:19:42.177Z,54.62
2023-03-06T00:20:42.185Z,54.72
2023-03-06T00:21:42.182Z,54.53
2023-03-06T00:22:42.190Z,54.53
2023-03-06T00:23:42.198Z,54.62
2023-03-06T00:24:42.200Z,54.06
2023-03-06T00:25:42.202Z,54.06
2023-03-06T00:26:42.219Z,53.77
2023-03-06T00:27:42.210Z,53.49
2023-03-06T00:28:42.225Z,54.15
2023-03-06T00:29:42.220Z,53.87
2023-03-06T00:30:42.242Z,53.87
2023-03-06T00:31:42.255Z,53.96
2023-03-06T00:32:42.272Z,54.15
2023-03-06T00:33:42.237Z,54.25
2023-03-06T00:34:42.240Z,54.06
2023-03-06T00:35:42.346Z,53.58
2023-03-06T00:36:42.250Z,53.77
2023-03-06T00:37:42.270Z,53.58
2023-03-06T00:38:42.266Z,53.20
2023-03-06T00:39:42.257Z,53.20
2023-03-06T00:40:42.266Z,53.30
2023-03-06T00:41:42.268Z,52.45
2023-03-06T00:42:42.274Z,52.55
2023-03-06T00:43:42.274Z,52.45
2023-03-06T00:44:42.330Z,52.64
2023-03-06T00:45:42.300Z,52.83
2023-03-06T00:46:42.307Z,53.02
2023-03-06T00:47:42.297Z,52.64
2023-03-06T00:48:42.320Z,52.36
2023-03-06T00:49:42.298Z,51.98
2023-03-06T00:50:42.307Z,52.17
2023-03-06T00:51:42.309Z,52.26
2023-03-06T00:52:42.317Z,52.19
2023-03-06T00:53:42.317Z,52.26
2023-03-06T00:54:42.326Z,52.67
2023-03-06T00:55:42.325Z,52.38
2023-03-06T00:56:42.333Z,52.67
2023-03-06T00:57:42.336Z,52.76
2023-03-06T00:58:42.343Z,52.19
2023-03-06T00:59:42.344Z,52.48
2023-03-06T01:00:42.433Z,52.19
2023-03-06T01:01:42.368Z,52.36
2023-03-06T01:02:42.380Z,52.19
2023-03-06T01:03:42.360Z,52.00
2023-03-06T01:04:42.400Z,52.00
2023-03-06T01:05:42.365Z,52.57
2023-03-06T01:06:42.377Z,52.57
2023-03-06T01:07:42.374Z,52.67
2023-03-06T01:08:42.379Z,53.58
2023-03-06T01:09:42.388Z,53.05
2023-03-06T01:10:42.438Z,53.05
2023-03-06T01:11:42.390Z,53.05
2023-03-06T01:12:42.422Z,53.02
2023-03-06T01:13:42.404Z,52.55
2023-03-06T01:14:42.412Z,52.07
2023-03-06T01:15:42.408Z,52.45
2023-03-06T01:16:42.469Z,52.17
2023-03-06T01:17:42.416Z,52.55
2023-03-06T01:18:42.421Z,52.55
2023-03-06T01:19:42.423Z,52.26
2023-03-06T01:20:42.453Z,52.36
2023-03-06T01:21:42.438Z,52.36
2023-03-06T01:22:42.444Z,52.07
2023-03-06T01:23:42.442Z,51.69
2023-03-06T01:24:42.454Z,51.50
2023-03-06T01:25:42.449Z,51.50
2023-03-06T01:26:42.458Z,51.60
2023-03-06T01:27:42.461Z,51.69
2023-03-06T01:28:42.469Z,51.98
2023-03-06T01:29:42.470Z,52.36
2023-03-06T01:30:42.478Z,52.36
2023-03-06T01:31:42.710Z,52.17
2023-03-06T01:32:42.540Z,52.17
2023-03-06T01:33:42.498Z,51.88
2023-03-06T01:34:42.495Z,51.69
2023-03-06T01:35:42.522Z,51.03
2023-03-06T01:36:42.520Z,51.13
2023-03-06T01:37:42.529Z,50.84
2023-03-06T01:38:42.551Z,51.03
2023-03-06T01:39:42.511Z,51.32
2023-03-06T01:40:42.522Z,50.94
2023-03-06T01:41:42.518Z,51.22
2023-03-06T01:42:42.533Z,51.50
2023-03-06T01:43:42.536Z,51.69
2023-03-06T01:44:42.536Z,51.50
2023-03-06T01:45:42.586Z,51.60
2023-03-06T01:46:42.547Z,52.45
2023-03-06T01:47:42.557Z,51.79
2023-03-06T01:48:42.559Z,51.60
2023-03-06T01:49:42.554Z,51.22
2023-03-06T01:50:42.563Z,51.98
2023-03-06T01:51:42.565Z,51.69
2023-03-06T01:52:42.604Z,51.79
2023-03-06T01:53:42.572Z,51.60
2023-03-06T01:54:42.585Z,51.50
2023-03-06T01:55:42.582Z,51.22
2023-03-06T01:56:42.588Z,51.50
2023-03-06T01:57:42.599Z,51.22
2023-03-06T01:58:42.596Z,51.60
2023-03-06T01:59:42.598Z,51.69
2023-03-06T02:00:42.604Z,51.32
2023-03-06T02:01:42.614Z,51.69
2023-03-06T02:02:42.716Z,51.79
2023-03-06T02:03:42.628Z,50.75
2023-03-06T02:04:42.630Z,50.65
2023-03-06T02:05:42.650Z,51.03
2023-03-06T02:06:42.628Z,50.75
2023-03-06T02:07:42.633Z,50.94
2023-03-06T02:08:42.663Z,50.84
2023-03-06T02:09:42.641Z,50.94
2023-03-06T02:10:42.644Z,51.03
2023-03-06T02:11:42.710Z,51.50
2023-03-06T02:12:42.663Z,51.03
2023-03-06T02:13:42.653Z,51.60
2023-03-06T02:14:42.663Z,51.79
2023-03-06T02:15:42.663Z,51.50
2023-03-06T02:16:42.797Z,51.69
2023-03-06T02:17:42.671Z,51.98
2023-03-06T02:18:42.677Z,51.69
2023-03-06T02:19:42.679Z,51.22
2023-03-06T02:20:42.697Z,51.03
2023-03-06T02:21:42.686Z,51.50
2023-03-06T02:22:42.694Z,51.50
2023-03-06T02:23:42.695Z,50.94
2023-03-06T02:24:42.719Z,51.69
2023-03-06T02:25:42.706Z,51.79
2023-03-06T02:26:42.710Z,50.84
2023-03-06T02:27:42.708Z,51.13
2023-03-06T02:28:42.717Z,51.03
2023-03-06T02:29:42.744Z,51.88
2023-03-06T02:30:42.806Z,51.69
2023-03-06T02:31:42.729Z,51.50
2023-03-06T02:32:42.740Z,52.36
2023-03-06T02:33:42.737Z,52.26
2023-03-06T02:34:42.740Z,52.26
2023-03-06T02:35:42.776Z,52.07
2023-03-06T02:36:42.751Z,51.98
2023-03-06T02:37:42.750Z,52.17
2023-03-06T02:38:42.753Z,51.98
2023-03-06T02:39:42.764Z,52.07
2023-03-06T02:40:42.785Z,51.69
2023-03-06T02:41:42.762Z,51.69
2023-03-06T02:42:42.773Z,51.69
2023-03-06T02:43:42.781Z,51.13
2023-03-06T02:44:42.778Z,51.50
2023-03-06T02:45:42.778Z,51.03
2023-03-06T02:46:42.781Z,51.03
2023-03-06T02:47:42.784Z,51.13
2023-03-06T02:48:42.793Z,51.60
2023-03-06T02:49:42.790Z,51.22
2023-03-06T02:50:42.801Z,51.48
2023-03-06T02:51:42.799Z,52.17
2023-03-06T02:52:42.829Z,52.26
2023-03-06T02:53:42.807Z,52.26
2023-03-06T02:54:42.825Z,52.17
2023-03-06T02:55:42.814Z,52.07
2023-03-06T02:56:42.835Z,51.98
2023-03-06T02:57:42.833Z,51.32
2023-03-06T02:58:42.840Z,51.32
2023-03-06T02:59:42.823Z,51.79
2023-03-06T03:00:42.837Z,52.17
2023-03-06T03:01:42.855Z,52.36
2023-03-06T03:02:42.846Z,51.88
2023-03-06T03:03:42.840Z,52.04
2023-03-06T03:04:42.871Z,52.14
2023-03-06T03:05:42.861Z,52.14
2023-03-06T03:06:42.865Z,52.33
2023-03-06T03:07:42.856Z,52.70
2023-03-06T03:08:42.856Z,52.99
2023-03-06T03:09:42.865Z,52.99
2023-03-06T03:10:42.867Z,53.08
2023-03-06T03:11:42.874Z,53.08
2023-03-06T03:12:42.895Z,53.56
2023-03-06T03:13:42.878Z,52.80
2023-03-06T03:14:42.878Z,53.46
2023-03-06T03:15:42.934Z,53.37
2023-03-06T03:16:42.902Z,53.08
2023-03-06T03:17:42.904Z,53.37
2023-03-06T03:18:42.901Z,53.37
2023-03-06T03:19:42.909Z,53.27
2023-03-06T03:20:42.915Z,53.27
2023-03-06T03:21:42.915Z,53.27
2023-03-06T03:22:42.913Z,53.56
2023-03-06T03:23:42.914Z,53.75
2023-03-06T03:24:42.934Z,53.94
2023-03-06T03:25:42.935Z,53.75
2023-03-06T03:26:42.931Z,53.75
2023-03-06T03:27:42.928Z,53.18
2023-03-06T03:28:42.951Z,53.56
2023-03-06T03:29:42.941Z,53.27
2023-03-06T03:30:42.940Z,52.61
2023-03-06T03:31:42.947Z,52.23
2023-03-06T03:32:42.954Z,52.42
2023-03-06T03:33:42.955Z,52.51
2023-03-06T03:34:42.951Z,52.04
2023-03-06T03:35:42.995Z,52.33
2023-03-06T03:36:42.954Z,51.95
2023-03-06T03:37:42.962Z,51.57
2023-03-06T03:38:42.986Z,51.67
2023-03-06T03:39:42.972Z,50.82
2023-03-06T03:40:42.970Z,50.91
2023-03-06T03:41:42.977Z,50.09
2023-03-06T03:42:42.976Z,50.53
2023-03-06T03:43:43.000Z,50.25
2023-03-06T03:44:43.006Z,49.43
2023-03-06T03:45:43.004Z,48.93
2023-03-06T03:46:43.038Z,49.24
2023-03-06T03:47:43.025Z,49.43
2023-03-06T03:48:42.997Z,49.90
2023-03-06T03:49:43.007Z,50.35
2023-03-06T03:50:43.004Z,50.06
2023-03-06T03:51:43.012Z,50.35
2023-03-06T03:52:43.012Z,50.35
2023-03-06T03:53:43.030Z,50.44
2023-03-06T03:54:43.017Z,50.63
2023-03-06T03:55:43.032Z,50.63
2023-03-06T03:56:43.033Z,51.39
2023-03-06T03:57:43.039Z,51.39
2023-03-06T03:58:43.041Z,51.95
2023-03-06T03:59:43.044Z,52.42
2023-03-06T04:00:43.053Z,52.61
2023-03-06T04:01:43.115Z,52.89
2023-03-06T04:02:43.052Z,52.99
2023-03-06T04:03:43.049Z,53.56
2023-03-06T04:04:43.092Z,53.37
2023-03-06T04:05:43.055Z,53.65
2023-03-06T04:06:43.054Z,54.32
2023-03-06T04:07:43.071Z,54.60
2023-03-06T04:08:43.076Z,55.07
2023-03-06T04:09:43.066Z,55.16
2023-03-06T04:10:43.067Z,55.26
2023-03-06T04:11:43.075Z,55.16
2023-03-06T04:12:43.073Z,54.97
2023-03-06T04:13:43.082Z,54.79
2023-03-06T04:14:43.088Z,54.69
2023-03-06T04:15:43.105Z,54.50
2023-03-06T04:16:43.116Z,54.88
2023-03-06T04:17:43.099Z,55.26
2023-03-06T04:18:43.100Z,55.07
2023-03-06T04:19:43.101Z,55.35
2023-03-06T04:20:43.105Z,55.35
2023-03-06T04:21:43.105Z,55.16
2023-03-06T04:22:43.119Z,55.07
2023-03-06T04:23:43.117Z,54.97
2023-03-06T04:24:43.114Z,55.07
2023-03-06T04:25:43.121Z,54.88
2023-03-06T04:26:43.123Z,54.32
2023-03-06T04:27:43.127Z,54.69
2023-03-06T04:28:43.138Z,54.13
2023-03-06T04:29:43.176Z,54.22
2023-03-06T04:30:43.133Z,54.22
2023-03-06T04:31:43.221Z,54.03
2023-03-06T04:32:43.229Z,54.03
2023-03-06T04:33:43.146Z,54.03
2023-03-06T04:34:43.156Z,54.32
2023-03-06T04:35:43.312Z,54.22
2023-03-06T04:36:43.163Z,54.13
2023-03-06T04:37:43.168Z,53.94
2023-03-06T04:38:43.293Z,54.22
2023-03-06T04:39:43.169Z,53.94
2023-03-06T04:40:44.881Z,53.46
2023-03-06T04:41:43.174Z,53.65
2023-03-06T04:42:43.173Z,53.27
2023-03-06T04:43:43.179Z,53.56
2023-03-06T04:44:43.185Z,53.27
2023-03-06T04:45:43.206Z,53.08
2023-03-06T04:46:43.190Z,52.51
2023-03-06T04:47:43.195Z,52.42
2023-03-06T04:48:43.223Z,52.33
2023-03-06T04:49:43.202Z,51.95
2023-03-06T04:50:43.201Z,52.42
2023-03-06T04:51:43.208Z,52.04
2023-03-06T04:52:43.209Z,52.61
2023-03-06T04:53:43.215Z,52.14
2023-03-06T04:54:43.237Z,52.80
2023-03-06T04:55:43.239Z,53.27
2023-03-06T04:56:43.224Z,52.89
2023-03-06T04:57:43.236Z,52.61
2023-03-06T04:58:43.234Z,52.70
2023-03-06T04:59:43.240Z,52.23
2023-03-06T05:00:43.284Z,52.61
2023-03-06T05:01:43.243Z,52.42
2023-03-06T05:02:43.240Z,52.04
2023-03-06T05:03:43.253Z,52.23
2023-03-06T05:04:43.266Z,52.14
2023-03-06T05:05:43.253Z,51.57
2023-03-06T05:06:43.252Z,52.33
2023-03-06T05:07:43.257Z,52.23
2023-03-06T05:08:43.258Z,52.51
2023-03-06T05:09:43.273Z,52.23
2023-03-06T05:10:43.267Z,52.61
2023-03-06T05:11:43.275Z,52.89
2023-03-06T05:12:43.270Z,53.18
2023-03-06T05:13:43.277Z,52.99
2023-03-06T05:14:43.280Z,52.42
2023-03-06T05:15:43.284Z,52.61
2023-03-06T05:16:43.351Z,52.61
2023-03-06T05:17:43.317Z,52.89
2023-03-06T05:18:43.289Z,53.18
2023-03-06T05:19:43.297Z,53.56
2023-03-06T05:20:43.316Z,53.18
2023-03-06T05:21:43.307Z,52.80
2023-03-06T05:22:43.306Z,52.61
2023-03-06T05:23:43.312Z,52.61
2023-03-06T05:24:43.321Z,52.33
2023-03-06T05:25:43.315Z,52.23
2023-03-06T05:26:43.320Z,51.95
2023-03-06T05:27:43.326Z,52.04
2023-03-06T05:28:43.327Z,52.42
2023-03-06T05:29:43.343Z,52.33
2023-03-06T05:30:43.334Z,52.23
2023-03-06T05:31:43.486Z,52.51
2023-03-06T05:32:43.387Z,52.17
2023-03-06T05:33:43.342Z,52.70
2023-03-06T05:34:43.362Z,52.64
2023-03-06T05:35:43.377Z,52.51
2023-03-06T05:36:43.379Z,52.89
2023-03-06T05:37:43.364Z,52.80
2023-03-06T05:38:43.364Z,52.89
2023-03-06T05:39:43.370Z,53.56
2023-03-06T05:40:43.367Z,53.08
2023-03-06T05:41:43.375Z,53.37
2023-03-06T05:42:43.380Z,53.56
2023-03-06T05:43:43.385Z,53.37
2023-03-06T05:44:43.401Z,53.18
2023-03-06T05:45:43.413Z,52.70
2023-03-06T05:46:43.393Z,52.23
2023-03-06T05:47:43.398Z,51.95
2023-03-06T05:48:45.296Z,51.48
2023-03-06T05:49:43.409Z,50.72
2023-03-06T05:50:43.421Z,49.49
2023-03-06T05:51:43.413Z,48.65
2023-03-06T05:52:43.449Z,47.80
2023-03-06T05:53:43.422Z,47.70
2023-03-06T05:54:43.443Z,47.51
2023-03-06T05:55:43.427Z,48.18
2023-03-06T05:56:43.422Z,47.61
2023-03-06T05:57:43.445Z,47.99
2023-03-06T05:58:43.430Z,48.27
2023-03-06T05:59:43.446Z,47.80
2023-03-06T06:00:43.437Z,48.46
2023-03-06T06:01:43.441Z,48.65
2023-03-06T06:02:43.530Z,48.36
2023-03-06T06:03:43.501Z,48.27
2023-03-06T06:04:43.452Z,47.89
2023-03-06T06:05:43.458Z,47.70
2023-03-06T06:06:43.455Z,47.99
2023-03-06T06:07:43.463Z,47.89
2023-03-06T06:08:43.485Z,47.99
2023-03-06T06:09:43.477Z,47.89
2023-03-06T06:10:43.472Z,47.80
2023-03-06T06:11:43.477Z,48.27
2023-03-06T06:12:43.474Z,48.27
2023-03-06T06:13:43.485Z,48.36
2023-03-06T06:14:43.479Z,49.11
2023-03-06T06:15:43.641Z,48.93
2023-03-06T06:16:43.484Z,48.46
2023-03-06T06:17:43.495Z,47.99
2023-03-06T06:18:43.495Z,47.42
2023-03-06T06:19:43.498Z,47.70
2023-03-06T06:20:43.497Z,47.89
2023-03-06T06:21:43.505Z,47.99
2023-03-06T06:22:43.505Z,47.70
2023-03-06T06:23:43.513Z,47.80
2023-03-06T06:24:43.546Z,48.08
2023-03-06T06:25:43.525Z,47.89
2023-03-06T06:26:43.518Z,48.18
2023-03-06T06:27:43.525Z,48.36
2023-03-06T06:28:43.521Z,48.27
2023-03-06T06:29:43.551Z,48.83
2023-03-06T06:30:43.534Z,48.55
2023-03-06T06:31:43.535Z,48.55
2023-03-06T06:32:43.537Z,48.55
2023-03-06T06:33:43.545Z,48.65
2023-03-06T06:34:43.546Z,48.57
2023-03-06T06:35:43.583Z,48.86
2023-03-06T06:36:43.555Z,48.48
2023-03-06T06:37:43.561Z,48.76
2023-03-06T06:38:43.560Z,48.10
2023-03-06T06:39:43.566Z,48.29
2023-03-06T06:40:43.591Z,47.72
2023-03-06T06:41:57.259Z,48.01
2023-03-06T06:42:43.572Z,48.01
2023-03-06T06:43:43.595Z,47.91
2023-03-06T06:44:43.575Z,47.82
2023-03-06T06:45:43.582Z,48.86
2023-03-06T06:47:43.708Z,49.43
2023-03-06T06:48:43.596Z,50.18
2023-03-06T06:49:43.607Z,50.09
2023-03-06T06:50:43.597Z,50.46
2023-03-06T06:51:43.606Z,50.27
2023-03-06T06:52:43.603Z,50.56
2023-03-06T06:53:43.613Z,50.37
2023-03-06T06:54:43.611Z,50.18
2023-03-06T06:55:43.623Z,50.37
2023-03-06T06:56:43.638Z,50.27
2023-03-06T06:57:43.635Z,49.99
2023-03-06T06:58:43.629Z,50.75
2023-03-06T06:59:43.630Z,52.07
2023-03-06T07:00:43.637Z,52.64
2023-03-06T07:01:43.762Z,52.73
2023-03-06T07:02:43.666Z,53.30
2023-03-06T07:03:43.687Z,53.39
2023-03-06T07:04:56.549Z,53.20
2023-03-06T07:05:43.654Z,53.02
2023-03-06T07:06:43.653Z,52.55
2023-03-06T07:07:43.662Z,52.55
2023-03-06T07:08:43.668Z,53.11
2023-03-06T07:09:43.678Z,53.20
2023-03-06T07:10:43.669Z,53.77
2023-03-06T07:11:43.677Z,54.06
2023-03-06T07:12:43.692Z,53.99
2023-03-06T07:13:43.684Z,54.25
2023-03-06T07:14:43.682Z,54.18
2023-03-06T07:15:43.725Z,54.08
2023-03-06T07:16:43.691Z,54.65
2023-03-06T07:17:43.699Z,54.55
2023-03-06T07:18:43.695Z,54.65
2023-03-06T07:19:43.704Z,55.31
2023-03-06T07:20:43.705Z,55.41
2023-03-06T07:21:43.722Z,55.22
2023-03-06T07:22:50.855Z,55.41
2023-03-06T07:23:43.721Z,55.12
2023-03-06T07:24:43.725Z,55.22
2023-03-06T07:25:43.722Z,55.41
2023-03-06T07:26:43.731Z,55.22
2023-03-06T07:27:48.739Z,55.69
2023-03-06T07:28:52.387Z,55.69
2023-03-06T07:29:43.767Z,56.07
2023-03-06T07:30:43.748Z,55.98
2023-03-06T07:31:43.744Z,55.31
2023-03-06T07:32:43.751Z,55.31
2023-03-06T07:33:43.763Z,55.88
2023-03-06T07:34:43.761Z,56.16
2023-03-06T07:35:43.780Z,56.07
2023-03-06T07:36:43.767Z,56.26
2023-03-06T07:37:43.786Z,56.07
2023-03-06T07:38:43.784Z,55.79
2023-03-06T07:39:43.778Z,55.98
2023-03-06T07:40:43.787Z,55.98
2023-03-06T07:41:43.787Z,55.50
2023-03-06T07:42:43.805Z,55.31
2023-03-06T07:43:43.795Z,56.07
2023-03-06T07:44:43.825Z,56.35
2023-03-06T07:45:43.811Z,56.26
2023-03-06T07:46:43.888Z,55.22
2023-03-06T07:47:43.813Z,54.65
2023-03-06T07:48:43.817Z,54.46
2023-03-06T07:49:43.818Z,55.60
2023-03-06T07:50:43.832Z,56.67
2023-03-06T07:51:43.828Z,56.38
2023-03-06T07:52:43.836Z,55.44
2023-03-06T07:53:43.834Z,54.39
2023-03-06T07:54:43.842Z,54.18
2023-03-06T07:55:43.844Z,55.15
2023-03-06T07:56:43.857Z,54.87
2023-03-06T07:57:43.852Z,54.68
2023-03-06T07:58:43.872Z,54.08
2023-03-06T07:59:43.867Z,54.58
2023-03-06T08:00:43.887Z,53.92
2023-03-06T08:01:43.872Z,55.15
2023-03-06T08:02:43.901Z,55.25
2023-03-06T08:03:43.956Z,55.34
2023-03-06T08:04:43.896Z,55.72
2023-03-06T08:05:43.901Z,55.53
2023-03-06T08:06:43.890Z,54.11
2023-03-06T08:07:43.898Z,53.74
2023-03-06T08:08:43.905Z,52.60
2023-03-06T08:09:43.900Z,52.50
2023-03-06T08:10:43.911Z,52.69
2023-03-06T08:11:43.907Z,52.41
2023-03-06T08:12:43.919Z,52.31
2023-03-06T08:13:43.934Z,53.83
2023-03-06T08:14:43.951Z,54.39
2023-03-06T08:15:43.920Z,55.44
2023-03-06T08:16:43.947Z,55.94
2023-03-06T08:17:43.927Z,55.65
2023-03-06T08:18:46.269Z,54.71
2023-03-06T08:19:43.940Z,54.61
2023-03-06T08:20:43.945Z,54.71
2023-03-06T08:21:43.947Z,53.57
2023-03-06T08:22:43.955Z,54.16
2023-03-06T08:23:43.957Z,53.88
2023-03-06T08:24:43.961Z,53.03
2023-03-06T08:25:43.962Z,51.80
2023-03-06T08:26:43.970Z,51.80
2023-03-06T08:27:43.982Z,52.27
2023-03-06T08:28:43.975Z,52.81
2023-03-06T08:29:43.982Z,51.68
2023-03-06T08:30:43.990Z,51.01
2023-03-06T08:31:44.079Z,51.20
2023-03-06T08:32:44.231Z,51.77
2023-03-06T08:33:43.998Z,52.34
2023-03-06T08:34:44.008Z,52.34
2023-03-06T08:35:44.031Z,52.60
2023-03-06T08:36:44.020Z,52.69
2023-03-06T08:37:44.064Z,53.26
2023-03-06T08:38:44.047Z,53.38
2023-03-06T08:39:44.024Z,52.81
2023-03-06T08:40:44.036Z,52.91
2023-03-06T08:41:44.033Z,52.91
2023-03-06T08:42:44.041Z,53.38
2023-03-06T08:43:44.041Z,53.57
2023-03-06T08:44:44.048Z,52.53
2023-03-06T08:45:44.085Z,52.65
2023-03-06T08:46:44.056Z,52.46
2023-03-06T08:47:44.064Z,51.51
2023-03-06T08:48:44.086Z,51.61
2023-03-06T08:49:44.068Z,51.49
2023-03-06T08:50:44.083Z,52.15
2023-03-06T08:51:44.076Z,52.84
2023-03-06T08:52:44.086Z,53.41
2023-03-06T08:53:44.472Z,52.84
2023-03-06T08:54:44.095Z,53.97
2023-03-06T08:55:44.097Z,52.94
2023-03-06T08:56:44.102Z,52.46
2023-03-06T08:57:44.112Z,53.44
2023-03-06T08:58:44.138Z,52.77
2023-03-06T08:59:44.116Z,52.20
2023-03-06T09:00:44.214Z,52.39
2023-03-06T09:01:44.232Z,51.45
2023-03-06T09:02:44.150Z,51.73
2023-03-06T09:03:44.133Z,51.04
2023-03-06T09:04:44.187Z,51.04
2023-03-06T09:05:44.149Z,51.89
2023-03-06T09:06:44.157Z,51.99
2023-03-06T09:07:44.162Z,52.48
2023-03-06T09:08:44.166Z,51.35
2023-03-06T09:09:44.169Z,50.31
2023-03-06T09:10:44.249Z,49.24
2023-03-06T09:11:44.177Z,49.15
2023-03-06T09:12:50.703Z,50.31
2023-03-06T09:13:44.206Z,51.82
2023-03-06T09:14:44.224Z,51.76
2023-03-06T09:15:44.196Z,51.18
2023-03-06T09:16:44.298Z,51.09
2023-03-06T09:17:44.216Z,50.71
2023-03-06T09:18:44.215Z,50.05
2023-03-06T09:19:44.224Z,48.82
2023-03-06T09:20:44.255Z,48.06
2023-03-06T09:21:44.230Z,47.20
2023-03-06T09:22:44.238Z,47.96
2023-03-06T09:23:44.241Z,47.39
2023-03-06T09:24:44.254Z,48.41
2023-03-06T09:25:44.253Z,48.25
2023-03-06T09:26:46.513Z,48.51
2023-03-06T09:27:44.277Z,50.71
2023-03-06T09:28:44.276Z,49.29
2023-03-06T09:29:44.276Z,47.96
2023-03-06T09:30:44.286Z,47.49
2023-03-06T09:31:44.284Z,46.35
2023-03-06T09:32:44.388Z,45.50
2023-03-06T09:33:44.316Z,45.40
2023-03-06T09:34:44.318Z,45.69
2023-03-06T09:35:44.439Z,45.50
2023-03-06T09:36:55.916Z,44.65
2023-03-06T09:37:44.321Z,43.98
2023-03-06T09:38:44.336Z,44.17
2023-03-06T09:39:44.337Z,45.12
2023-03-06T09:40:44.342Z,45.50
2023-03-06T09:41:44.347Z,44.46
2023-03-06T09:42:44.354Z,44.46
2023-03-06T09:43:44.358Z,44.10
2023-03-06T09:44:44.370Z,43.34
2023-03-06T09:45:44.402Z,44.20
2023-03-06T09:46:44.381Z,43.62
2023-03-06T09:47:44.380Z,43.91
2023-03-06T09:48:44.390Z,42.39
2023-03-06T09:49:44.393Z,40.66
2023-03-06T09:50:44.400Z,42.11
2023-03-06T09:51:44.408Z,41.54
2023-03-06T09:52:44.435Z,41.44
2023-03-06T09:53:44.419Z,41.54
2023-03-06T09:54:44.430Z,40.28
2023-03-06T09:55:44.433Z,40.28
2023-03-06T09:56:44.445Z,41.16
2023-03-06T09:57:44.447Z,42.49
2023-03-06T09:58:44.462Z,41.42
2023-03-06T09:59:44.460Z,42.08
2023-03-06T10:00:44.474Z,42.68
2023-03-06T10:01:44.470Z,41.80
2023-03-06T10:02:44.648Z,42.30
2023-03-06T10:03:44.485Z,42.96
2023-03-06T10:04:44.556Z,43.15
2023-03-06T10:05:44.518Z,42.30
2023-03-06T10:06:44.504Z,40.57
2023-03-06T10:07:44.509Z,42.01
2023-03-06T10:08:44.583Z,42.39
2023-03-06T10:09:44.553Z,41.44
2023-03-06T10:10:44.566Z,41.08
2023-03-06T10:11:44.560Z,42.98
2023-03-06T10:12:44.548Z,43.17
2023-03-06T10:13:44.565Z,43.08
2023-03-06T10:14:46.636Z,41.85
2023-03-06T10:15:44.615Z,41.77
2023-03-06T10:16:44.573Z,41.66
2023-03-06T10:17:44.600Z,42.15
2023-03-06T10:18:44.609Z,42.53
2023-03-06T10:19:44.594Z,42.72
2023-03-06T10:20:44.604Z,40.70
2023-03-06T10:21:44.608Z,39.66
2023-03-06T10:22:48.056Z,39.37
2023-03-06T10:23:44.628Z,39.09
2023-03-06T10:24:44.669Z,37.97
2023-03-06T10:25:44.638Z,38.07
2023-03-06T10:26:44.776Z,38.92
2023-03-06T10:27:44.659Z,38.82
2023-03-06T10:28:44.710Z,38.35
2023-03-06T10:29:56.388Z,38.92
2023-03-06T10:30:44.817Z,38.92
2023-03-06T10:31:44.687Z,38.92
2023-03-06T10:32:49.302Z,37.78
2023-03-06T10:33:44.704Z,37.88
2023-03-06T10:34:44.715Z,38.26
2023-03-06T10:35:44.734Z,38.35
2023-03-06T10:36:44.728Z,38.26
2023-03-06T10:37:44.736Z,38.37
2023-03-06T10:38:44.759Z,38.09
2023-03-06T10:39:44.762Z,37.90
2023-03-06T10:40:44.885Z,36.85
2023-03-06T10:41:45.987Z,36.07
2023-03-06T10:42:44.783Z,37.90
2023-03-06T10:43:44.816Z,37.42
2023-03-06T10:44:44.809Z,37.90
2023-03-06T10:45:49.301Z,37.12
2023-03-06T10:46:44.886Z,37.42
2023-03-06T10:47:44.819Z,36.93
2023-03-06T10:48:44.831Z,37.78
2023-03-06T10:49:44.877Z,39.04
2023-03-06T10:50:44.878Z,38.94
2023-03-06T10:51:44.850Z,39.34
2023-03-06T10:52:44.875Z,39.53
2023-03-06T10:53:44.882Z,37.54
2023-03-06T10:54:44.903Z,37.06
2023-03-06T10:55:44.893Z,38.20
2023-03-06T10:56:44.919Z,37.74
2023-03-06T10:57:44.925Z,37.08
2023-03-06T10:58:44.932Z,37.93
2023-03-06T10:59:44.918Z,37.27
2023-03-06T11:00:44.933Z,36.04
2023-03-06T11:01:45.123Z,35.08
2023-03-06T11:02:44.948Z,35.46
2023-03-06T11:03:44.982Z,36.22
2023-03-06T11:04:45.019Z,35.17
2023-03-06T11:05:44.974Z,34.89
2023-03-06T11:06:44.982Z,35.92
2023-03-06T11:07:44.993Z,36.11
2023-03-06T11:08:45.003Z,36.40
2023-03-06T11:09:45.012Z,36.30
2023-03-06T11:10:45.042Z,36.09
2023-03-06T11:11:45.035Z,37.13
2023-03-06T11:12:45.073Z,38.96
2023-03-06T11:13:45.040Z,40.41
2023-03-06T11:14:45.061Z,38.48
2023-03-06T11:15:45.095Z,38.20
2023-03-06T11:16:45.081Z,38.68
2023-03-06T11:17:45.084Z,36.77
2023-03-06T11:18:45.093Z,36.30
2023-03-06T11:19:45.102Z,36.02
2023-03-06T11:20:51.868Z,36.68
2023-03-06T11:21:45.119Z,36.38
2023-03-06T11:22:45.133Z,36.85
2023-03-06T11:23:45.141Z,38.39
2023-03-06T11:24:45.173Z,37.84
2023-03-06T11:25:45.222Z,36.28
2023-03-06T11:26:45.185Z,36.19
2023-03-06T11:27:45.181Z,36.85
2023-03-06T11:28:45.352Z,37.92
2023-03-06T11:29:45.195Z,38.03
2023-03-06T11:30:45.208Z,37.93
2023-03-06T11:31:45.257Z,36.89
2023-03-06T11:32:45.240Z,36.57
2023-03-06T11:33:45.231Z,36.85
2023-03-06T11:34:45.249Z,37.90
2023-03-06T11:35:45.300Z,38.29
2023-03-06T11:36:45.261Z,37.92
2023-03-06T11:37:45.272Z,38.58
2023-03-06T11:38:45.281Z,39.06
2023-03-06T11:39:45.337Z,38.96
2023-03-06T11:40:45.299Z,38.56
2023-03-06T11:41:45.311Z,38.35
2023-03-06T11:42:45.319Z,39.49
2023-03-06T11:43:45.333Z,39.97
2023-03-06T11:44:45.393Z,40.75
2023-03-06T11:45:45.370Z,40.84
2023-03-06T11:46:45.432Z,40.48
2023-03-06T11:47:45.377Z,40.69
2023-03-06T11:48:45.375Z,40.77
2023-03-06T11:49:45.394Z,40.48
2023-03-06T11:50:45.413Z,39.30
2023-03-06T11:51:45.406Z,39.89
2023-03-06T11:52:45.416Z,40.27
2023-03-06T11:53:45.426Z,40.27
2023-03-06T11:54:45.432Z,40.63
2023-03-06T11:55:45.451Z,41.03
2023-03-06T11:56:45.452Z,42.10
2023-03-06T11:57:45.466Z,40.84
2023-03-06T11:58:45.478Z,39.70
2023-03-06T11:59:45.482Z,40.37
2023-03-06T12:00:45.517Z,40.16
2023-03-06T12:01:45.582Z,40.65
2023-03-06T12:02:45.511Z,41.41
2023-03-06T12:03:45.526Z,39.70
2023-03-06T12:04:45.537Z,39.01
2023-03-06T12:05:45.607Z,39.49
2023-03-06T12:06:45.547Z,40.53
2023-03-06T12:07:45.566Z,39.87
2023-03-06T12:08:45.571Z,40.27
2023-03-06T12:09:45.585Z,40.37
2023-03-06T12:10:51.469Z,40.39
2023-03-06T12:11:45.609Z,39.81
2023-03-06T12:12:45.610Z,39.84
2023-03-06T12:13:45.619Z,38.22
2023-03-06T12:14:45.619Z,38.12
2023-03-06T12:15:45.673Z,38.79
2023-03-06T12:16:45.721Z,37.82
2023-03-06T12:17:45.653Z,38.01
2023-03-06T12:18:45.659Z,38.98
2023-03-06T12:19:45.774Z,38.41
2023-03-06T12:20:45.676Z,36.30
2023-03-06T12:21:45.686Z,37.25
2023-03-06T12:22:57.398Z,38.29
2023-03-06T12:23:45.706Z,38.01
2023-03-06T12:24:45.711Z,37.73
2023-03-06T12:25:45.794Z,37.37
2023-03-06T12:26:45.744Z,37.84
2023-03-06T12:27:45.747Z,37.06
2023-03-06T12:28:46.513Z,36.89
2023-03-06T12:29:45.770Z,37.18
2023-03-06T12:30:45.771Z,36.22
2023-03-06T12:31:45.825Z,36.32
2023-03-06T12:32:45.908Z,36.22
2023-03-06T12:33:45.802Z,36.87
2023-03-06T12:34:45.816Z,37.15
2023-03-06T12:35:45.843Z,36.58
2023-03-06T12:36:45.825Z,36.79
2023-03-06T12:37:45.844Z,37.37
2023-03-06T12:38:45.847Z,36.21
2023-03-06T12:39:45.859Z,36.38
2023-03-06T12:40:45.884Z,37.42
2023-03-06T12:41:45.875Z,38.46
2023-03-06T12:42:45.883Z,37.99
2023-03-06T12:43:45.897Z,38.39
2023-03-06T12:44:45.902Z,39.74
2023-03-06T12:45:46.072Z,38.31
2023-03-06T12:46:45.922Z,37.48
2023-03-06T12:47:45.935Z,37.49
2023-03-06T12:48:46.026Z,36.07
2023-03-06T12:49:47.463Z,35.10
2023-03-06T12:50:45.966Z,35.67
2023-03-06T12:51:45.981Z,35.46
2023-03-06T12:52:45.981Z,35.56
2023-03-06T12:53:45.999Z,35.16